createdAt,value
2023-05-10T00:00:42.864Z,578.00
2023-05-10T00:01:42.885Z,580.00
2023-05-10T00:02:43.101Z,582.00
2023-05-10T00:03:43.071Z,578.00
2023-05-10T00:04:42.878Z,583.00
2023-05-10T00:05:42.889Z,582.00
2023-05-10T00:06:42.900Z,584.00
2023-05-10T00:07:42.897Z,582.00
2023-05-10T00:08:42.922Z,581.00
2023-05-10T00:09:42.915Z,579.00
2023-05-10T00:10:42.915Z,582.00
2023-05-10T00:11:42.897Z,579.00
2023-05-10T00:12:43.040Z,584.00
2023-05-10T00:13:43.326Z,585.00
2023-05-10T00:14:43.060Z,586.00
2023-05-10T00:15:43.139Z,583.00
2023-05-10T00:16:43.220Z,580.00
2023-05-10T00:17:43.278Z,587.00
2023-05-10T00:18:43.268Z,582.00
2023-05-10T00:19:43.302Z,589.00
2023-05-10T00:20:43.330Z,590.00
2023-05-10T00:21:43.382Z,586.00
2023-05-10T00:22:43.411Z,584.00
2023-05-10T00:23:43.839Z,588.00
2023-05-10T00:24:43.501Z,583.00
2023-05-10T00:25:43.517Z,586.00
2023-05-10T00:26:43.568Z,587.00
2023-05-10T00:27:43.587Z,580.00
2023-05-10T00:28:43.636Z,586.00
2023-05-10T00:29:43.627Z,590.00
2023-05-10T00:30:43.643Z,589.00
2023-05-10T00:31:43.716Z,584.00
2023-05-10T00:32:43.727Z,590.00
2023-05-10T00:33:43.764Z,588.00
2023-05-10T00:34:43.728Z,585.00
2023-05-10T00:35:43.777Z,584.00
2023-05-10T00:36:43.817Z,584.00
2023-05-10T00:37:43.907Z,587.00
2023-05-10T00:38:44.364Z,585.00
2023-05-10T00:39:43.910Z,582.00
2023-05-10T00:40:43.965Z,585.00
2023-05-10T00:41:44.033Z,587.00
2023-05-10T00:42:44.029Z,583.00
2023-05-10T00:43:44.068Z,583.00
2023-05-10T00:44:44.099Z,584.00
2023-05-10T00:45:44.192Z,587.00
2023-05-10T00:46:44.199Z,581.00
2023-05-10T00:47:44.304Z,587.00
2023-05-10T00:48:44.388Z,587.00
2023-05-10T00:49:44.320Z,591.00
2023-05-10T00:50:44.366Z,587.00
2023-05-10T00:51:44.413Z,590.00
2023-05-10T00:52:44.448Z,585.00
2023-05-10T00:53:44.841Z,583.00
2023-05-10T00:54:44.550Z,586.00
2023-05-10T00:55:44.565Z,585.00
2023-05-10T00:56:44.615Z,585.00
2023-05-10T00:57:44.650Z,586.00
2023-05-10T00:58:44.876Z,584.00
2023-05-10T00:59:44.706Z,587.00
2023-05-10T01:00:44.715Z,586.00
2023-05-10T01:01:44.781Z,587.00
2023-05-10T01:02:44.814Z,587.00
2023-05-10T01:03:44.909Z,584.00
2023-05-10T01:04:44.803Z,583.00
2023-05-10T01:05:44.818Z,587.00
2023-05-10T01:06:44.788Z,587.00
2023-05-10T01:07:44.848Z,590.00
2023-05-10T01:08:44.882Z,585.00
2023-05-10T01:09:44.899Z,587.00
2023-05-10T01:10:44.880Z,586.00
2023-05-10T01:11:44.974Z,588.00
2023-05-10T01:12:45.013Z,590.00
2023-05-10T01:13:44.981Z,589.00
2023-05-10T01:14:44.960Z,590.00
2023-05-10T01:15:45.021Z,589.00
2023-05-10T01:16:44.998Z,592.00
2023-05-10T01:17:45.050Z,587.00
2023-05-10T01:18:45.016Z,593.00
2023-05-10T01:19:45.057Z,586.00
2023-05-10T01:20:45.132Z,585.00
2023-05-10T01:21:45.129Z,591.00
2023-05-10T01:22:45.177Z,584.00
2023-05-10T01:23:45.355Z,589.00
2023-05-10T01:24:45.204Z,587.00
2023-05-10T01:25:45.235Z,588.00
2023-05-10T01:26:45.245Z,587.00
2023-05-10T01:27:45.278Z,586.00
2023-05-10T01:28:45.369Z,588.00
2023-05-10T01:29:45.306Z,585.00
2023-05-10T01:30:45.337Z,587.00
2023-05-10T01:31:45.350Z,591.00
2023-05-10T01:32:45.359Z,589.00
2023-05-10T01:33:45.365Z,587.00
2023-05-10T01:34:45.292Z,587.00
2023-05-10T01:35:45.285Z,587.00
2023-05-10T01:36:45.347Z,589.00
2023-05-10T01:37:45.367Z,588.00
2023-05-10T01:38:45.896Z,588.00
2023-05-10T01:39:45.376Z,590.00
2023-05-10T01:40:45.380Z,584.00
2023-05-10T01:41:45.392Z,593.00
2023-05-10T01:42:45.395Z,584.00
2023-05-10T01:43:45.878Z,593.00
2023-05-10T01:44:45.403Z,586.00
2023-05-10T01:45:45.406Z,586.00
2023-05-10T01:46:45.460Z,588.00
2023-05-10T01:47:45.496Z,590.00
2023-05-10T01:48:45.420Z,585.00
2023-05-10T01:49:45.462Z,590.00
2023-05-10T01:50:45.487Z,587.00
2023-05-10T01:51:45.547Z,588.00
2023-05-10T01:52:45.484Z,588.00
2023-05-10T01:53:45.477Z,590.00
2023-05-10T01:54:45.472Z,587.00
2023-05-10T01:55:45.462Z,589.00
2023-05-10T01:56:45.475Z,589.00
2023-05-10T01:58:21.087Z,500.00
2023-05-10T01:59:21.086Z,500.00
2023-05-10T02:00:21.104Z,500.00
2023-05-10T02:01:21.110Z,500.00
2023-05-10T02:02:21.109Z,500.00
2023-05-10T02:03:21.118Z,500.00
2023-05-10T02:04:21.263Z,502.00
2023-05-10T02:05:21.057Z,506.00
2023-05-10T02:06:21.082Z,504.00
2023-05-10T02:07:21.034Z,502.00
2023-05-10T02:08:21.810Z,500.00
2023-05-10T02:09:21.292Z,504.00
2023-05-10T02:10:21.033Z,503.00
2023-05-10T02:11:21.029Z,502.00
2023-05-10T02:12:21.023Z,503.00
2023-05-10T02:13:21.080Z,503.00
2023-05-10T02:14:21.269Z,503.00
2023-05-10T02:15:21.043Z,502.00
2023-05-10T02:16:21.056Z,502.00
2023-05-10T02:17:20.986Z,505.00
2023-05-10T02:18:21.006Z,501.00
2023-05-10T02:19:21.265Z,510.00
2023-05-10T02:20:20.939Z,506.00
2023-05-10T02:21:20.949Z,504.00
2023-05-10T02:22:20.983Z,506.00
2023-05-10T02:23:20.963Z,502.00
2023-05-10T02:24:21.272Z,506.00
2023-05-10T02:25:20.962Z,504.00
2023-05-10T02:26:20.950Z,506.00
2023-05-10T02:27:20.950Z,505.00
2023-05-10T02:28:20.923Z,503.00
2023-05-10T02:29:20.931Z,505.00
2023-05-10T02:30:20.926Z,506.00
2023-05-10T02:31:21.002Z,506.00
2023-05-10T02:32:20.905Z,509.00
2023-05-10T02:33:20.878Z,506.00
2023-05-10T02:34:21.315Z,505.00
2023-05-10T02:35:20.838Z,506.00
2023-05-10T02:36:20.848Z,505.00
2023-05-10T02:37:20.852Z,509.00
2023-05-10T02:38:20.843Z,505.00
2023-05-10T02:39:20.857Z,503.00
2023-05-10T02:40:20.854Z,505.00
2023-05-10T02:41:20.824Z,508.00
2023-05-10T02:42:20.801Z,504.00
2023-05-10T02:43:20.816Z,506.00
2023-05-10T02:44:21.285Z,510.00
2023-05-10T02:45:20.773Z,510.00
2023-05-10T02:46:20.803Z,512.00
2023-05-10T02:47:20.798Z,508.00
2023-05-10T02:48:20.777Z,509.00
2023-05-10T02:49:20.808Z,510.00
2023-05-10T02:50:20.744Z,503.00
2023-05-10T02:51:20.760Z,507.00
2023-05-10T02:52:20.759Z,507.00
2023-05-10T02:53:20.747Z,505.00
2023-05-10T02:54:20.733Z,506.00
2023-05-10T02:55:20.753Z,507.00
2023-05-10T02:56:20.705Z,507.00
2023-05-10T02:57:20.723Z,508.00
2023-05-10T02:58:20.705Z,512.00
2023-05-10T02:59:20.835Z,504.00
2023-05-10T03:00:20.696Z,505.00
2023-05-10T03:01:20.709Z,508.00
2023-05-10T03:02:20.709Z,505.00
2023-05-10T03:03:20.689Z,506.00
2023-05-10T03:04:20.845Z,509.00
2023-05-10T03:05:20.658Z,509.00
2023-05-10T03:06:20.630Z,506.00
2023-05-10T03:07:20.657Z,507.00
2023-05-10T03:08:20.644Z,504.00
2023-05-10T03:09:20.832Z,505.00
2023-05-10T03:10:20.638Z,505.00
2023-05-10T03:11:20.621Z,506.00
2023-05-10T03:12:20.595Z,505.00
2023-05-10T03:13:20.681Z,502.00
2023-05-10T03:14:20.620Z,505.00
2023-05-10T03:15:20.587Z,506.00
2023-05-10T03:16:20.617Z,506.00
2023-05-10T03:17:20.565Z,510.00
2023-05-10T03:18:20.573Z,507.00
2023-05-10T03:19:20.550Z,503.00
2023-05-10T03:20:20.565Z,504.00
2023-05-10T03:21:20.530Z,503.00
2023-05-10T03:22:20.538Z,507.00
2023-05-10T03:23:20.561Z,506.00
2023-05-10T03:24:20.557Z,509.00
2023-05-10T03:25:20.519Z,506.00
2023-05-10T03:26:20.538Z,509.00
2023-05-10T03:27:20.504Z,504.00
2023-05-10T03:28:20.488Z,506.00
2023-05-10T03:29:20.843Z,504.00
2023-05-10T03:30:20.468Z,502.00
2023-05-10T03:31:20.508Z,513.00
2023-05-10T03:32:20.431Z,508.00
2023-05-10T03:33:20.427Z,505.00
2023-05-10T03:34:20.443Z,508.00
2023-05-10T03:35:20.453Z,507.00
2023-05-10T03:36:20.429Z,510.00
2023-05-10T03:37:20.423Z,511.00
2023-05-10T03:38:20.445Z,508.00
2023-05-10T03:39:20.406Z,513.00
2023-05-10T03:40:20.386Z,503.00
2023-05-10T03:41:20.395Z,506.00
2023-05-10T03:42:20.391Z,504.00
2023-05-10T03:43:20.394Z,504.00
2023-05-10T03:44:20.389Z,504.00
2023-05-10T03:45:20.354Z,504.00
2023-05-10T03:46:20.425Z,509.00
2023-05-10T03:47:20.364Z,503.00
2023-05-10T03:48:20.376Z,508.00
2023-05-10T03:49:20.336Z,502.00
2023-05-10T03:50:20.391Z,503.00
2023-05-10T03:51:20.340Z,500.00
2023-05-10T03:52:20.329Z,503.00
2023-05-10T03:53:20.326Z,506.00
2023-05-10T03:54:20.359Z,505.00
2023-05-10T03:55:20.318Z,503.00
2023-05-10T03:56:20.287Z,509.00
2023-05-10T03:57:20.291Z,505.00
2023-05-10T03:58:20.280Z,503.00
2023-05-10T03:59:20.243Z,501.00
2023-05-10T04:00:20.250Z,503.00
2023-05-10T04:01:20.260Z,507.00
2023-05-10T04:02:20.301Z,503.00
2023-05-10T04:03:20.269Z,505.00
2023-05-10T04:04:20.322Z,508.00
2023-05-10T04:05:20.256Z,504.00
2023-05-10T04:06:20.239Z,506.00
2023-05-10T04:07:20.225Z,504.00
2023-05-10T04:08:20.248Z,508.00
2023-05-10T04:09:20.259Z,507.00
2023-05-10T04:10:20.221Z,509.00
2023-05-10T04:11:20.194Z,505.00
2023-05-10T04:12:20.178Z,505.00
2023-05-10T04:13:20.200Z,506.00
2023-05-10T04:14:20.159Z,505.00
2023-05-10T04:15:20.162Z,504.00
2023-05-10T04:16:20.189Z,509.00
2023-05-10T04:17:20.224Z,506.00
2023-05-10T04:18:20.124Z,506.00
2023-05-10T04:19:20.108Z,505.00
2023-05-10T04:20:20.145Z,509.00
2023-05-10T04:21:20.111Z,504.00
2023-05-10T04:22:20.110Z,504.00
2023-05-10T04:23:20.097Z,507.00
2023-05-10T04:24:20.404Z,505.00
2023-05-10T04:25:20.088Z,506.00
2023-05-10T04:26:20.058Z,505.00
2023-05-10T04:27:20.076Z,500.00
2023-05-10T04:28:20.047Z,503.00
2023-05-10T04:29:20.061Z,504.00
2023-05-10T04:30:20.051Z,506.00
2023-05-10T04:31:20.261Z,506.00
2023-05-10T04:32:20.033Z,505.00
2023-05-10T04:33:20.054Z,507.00
2023-05-10T04:34:20.018Z,508.00
2023-05-10T04:35:20.023Z,508.00
2023-05-10T04:36:20.014Z,505.00
2023-05-10T04:37:19.986Z,505.00
2023-05-10T04:38:20.014Z,504.00
2023-05-10T04:39:20.003Z,506.00
2023-05-10T04:40:20.008Z,506.00
2023-05-10T04:41:19.957Z,505.00
2023-05-10T04:42:19.963Z,510.00
2023-05-10T04:43:19.953Z,504.00
2023-05-10T04:44:19.964Z,505.00
2023-05-10T04:45:19.951Z,507.00
2023-05-10T04:46:19.959Z,505.00
2023-05-10T04:47:19.994Z,506.00
2023-05-10T04:48:19.920Z,507.00
2023-05-10T04:49:20.355Z,504.00
2023-05-10T04:50:19.903Z,509.00
2023-05-10T04:51:19.896Z,507.00
2023-05-10T04:52:19.917Z,504.00
2023-05-10T04:53:19.902Z,505.00
2023-05-10T04:54:19.870Z,505.00
2023-05-10T04:55:19.859Z,504.00
2023-05-10T04:56:19.858Z,505.00
2023-05-10T04:57:19.893Z,505.00
2023-05-10T04:58:19.918Z,504.00
2023-05-10T04:59:19.876Z,505.00
2023-05-10T05:00:19.899Z,503.00
2023-05-10T05:01:19.910Z,504.00
2023-05-10T05:02:19.925Z,502.00
2023-05-10T05:03:20.039Z,504.00
2023-05-10T05:04:20.358Z,507.00
2023-05-10T05:05:19.933Z,509.00
2023-05-10T05:06:19.969Z,508.00
2023-05-10T05:07:19.920Z,505.00
2023-05-10T05:08:19.947Z,505.00
2023-05-10T05:09:19.991Z,505.00
2023-05-10T05:10:20.226Z,502.00
2023-05-10T05:11:19.981Z,503.00
2023-05-10T05:12:19.965Z,503.00
2023-05-10T05:13:20.076Z,506.00
2023-05-10T05:14:19.982Z,506.00
2023-05-10T05:15:20.002Z,507.00
2023-05-10T05:16:20.048Z,507.00
2023-05-10T05:17:20.017Z,507.00
2023-05-10T05:18:20.001Z,507.00
2023-05-10T05:19:20.024Z,504.00
2023-05-10T05:20:20.092Z,504.00
2023-05-10T05:21:20.056Z,503.00
2023-05-10T05:22:20.060Z,500.00
2023-05-10T05:23:20.063Z,506.00
2023-05-10T05:24:20.071Z,507.00
2023-05-10T05:25:20.077Z,508.00
2023-05-10T05:26:20.090Z,504.00
2023-05-10T05:27:20.097Z,507.00
2023-05-10T05:28:20.093Z,506.00
2023-05-10T05:29:20.100Z,505.00
2023-05-10T05:30:20.101Z,505.00
2023-05-10T05:31:20.159Z,503.00
2023-05-10T05:32:20.117Z,503.00
2023-05-10T05:33:20.107Z,509.00
2023-05-10T05:34:20.113Z,505.00
2023-05-10T05:35:20.145Z,502.00
2023-05-10T05:36:20.130Z,504.00
2023-05-10T05:37:20.162Z,507.00
2023-05-10T05:38:20.127Z,508.00
2023-05-10T05:39:20.161Z,505.00
2023-05-10T05:40:20.180Z,504.00
2023-05-10T05:41:20.144Z,503.00
2023-05-10T05:42:20.147Z,507.00
2023-05-10T05:43:20.154Z,502.00
2023-05-10T05:44:20.384Z,505.00
2023-05-10T05:45:20.363Z,504.00
2023-05-10T05:46:20.187Z,506.00
2023-05-10T05:47:20.180Z,504.00
2023-05-10T05:48:20.186Z,509.00
2023-05-10T05:49:20.412Z,506.00
2023-05-10T05:50:20.184Z,503.00
2023-05-10T05:51:20.170Z,505.00
2023-05-10T05:52:20.213Z,506.00
2023-05-10T05:53:20.204Z,508.00
2023-05-10T05:54:20.393Z,505.00
2023-05-10T05:55:20.249Z,503.00
2023-05-10T05:56:20.239Z,507.00
2023-05-10T05:57:20.253Z,508.00
2023-05-10T05:58:20.265Z,507.00
2023-05-10T05:59:20.278Z,509.00
2023-05-10T06:00:20.273Z,509.00
2023-05-10T06:01:20.300Z,503.00
2023-05-10T06:02:20.317Z,504.00
2023-05-10T06:03:20.408Z,504.00
2023-05-10T06:04:20.417Z,506.00
2023-05-10T06:05:20.328Z,510.00
2023-05-10T06:06:20.324Z,507.00
2023-05-10T06:07:20.333Z,509.00
2023-05-10T06:08:20.307Z,512.00
2023-05-10T06:09:20.395Z,511.00
2023-05-10T06:10:20.349Z,513.00
2023-05-10T06:11:20.301Z,516.00
2023-05-10T06:12:20.314Z,513.00
2023-05-10T06:13:20.350Z,513.00
2023-05-10T06:14:20.382Z,518.00
2023-05-10T06:15:20.332Z,522.00
2023-05-10T06:16:20.369Z,526.00
2023-05-10T06:17:20.290Z,529.00
2023-05-10T06:18:20.309Z,529.00
2023-05-10T06:19:20.893Z,534.00
2023-05-10T06:20:20.312Z,539.00
2023-05-10T06:21:20.354Z,537.00
2023-05-10T06:22:20.368Z,541.00
2023-05-10T06:23:20.360Z,546.00
2023-05-10T06:24:20.915Z,542.00
2023-05-10T06:25:20.504Z,546.00
2023-05-10T06:26:20.570Z,546.00
2023-05-10T06:27:20.634Z,548.00
2023-05-10T06:28:20.639Z,553.00
2023-05-10T06:29:20.900Z,559.00
2023-05-10T06:30:20.726Z,559.00
2023-05-10T06:31:20.823Z,558.00
2023-05-10T06:32:20.843Z,560.00
2023-05-10T06:33:20.918Z,563.00
2023-05-10T06:34:21.393Z,566.00
2023-05-10T06:35:21.042Z,562.00
2023-05-10T06:36:21.086Z,565.00
2023-05-10T06:37:21.166Z,569.00
2023-05-10T06:38:21.230Z,570.00
2023-05-10T06:39:21.300Z,571.00
2023-05-10T06:40:21.345Z,573.00
2023-05-10T06:41:23.855Z,571.00
2023-05-10T06:42:21.462Z,580.00
2023-05-10T06:43:21.403Z,580.00
2023-05-10T06:44:21.425Z,580.00
2023-05-10T06:45:21.407Z,580.00
2023-05-10T06:46:21.424Z,580.00
2023-05-10T06:47:21.366Z,582.00
2023-05-10T06:48:21.405Z,580.00
2023-05-10T06:49:21.351Z,583.00
2023-05-10T06:50:21.411Z,587.00
2023-05-10T06:51:21.333Z,588.00
2023-05-10T06:52:21.371Z,586.00
2023-05-10T06:53:21.333Z,583.00
2023-05-10T06:54:21.342Z,587.00
2023-05-10T06:55:21.344Z,588.00
2023-05-10T06:56:21.315Z,589.00
2023-05-10T06:57:31.275Z,588.00
2023-05-10T06:58:22.274Z,588.00
2023-05-10T06:59:21.304Z,590.00
2023-05-10T07:00:21.496Z,591.00
2023-05-10T07:01:21.382Z,592.00
2023-05-10T07:02:21.302Z,593.00
2023-05-10T07:03:21.303Z,595.00
2023-05-10T07:04:21.316Z,598.00
2023-05-10T07:05:21.737Z,594.00
2023-05-10T07:06:32.192Z,594.00
2023-05-10T07:07:22.226Z,595.00
2023-05-10T07:08:21.241Z,595.00
2023-05-10T07:09:21.218Z,597.00
2023-05-10T07:10:21.445Z,597.00
2023-05-10T07:11:21.196Z,599.00
2023-05-10T07:12:21.233Z,600.00
2023-05-10T07:13:21.290Z,602.00
2023-05-10T07:14:21.172Z,603.00
2023-05-10T07:15:21.200Z,599.00
2023-05-10T07:16:21.245Z,604.00
2023-05-10T07:17:21.332Z,601.00
2023-05-10T07:18:21.360Z,608.00
2023-05-10T07:19:21.355Z,605.00
2023-05-10T07:20:21.420Z,606.00
2023-05-10T07:21:21.561Z,607.00
2023-05-10T07:22:21.513Z,607.00
2023-05-10T07:23:21.552Z,607.00
2023-05-10T07:24:21.601Z,608.00
2023-05-10T07:25:21.640Z,605.00
2023-05-10T07:26:21.685Z,610.00
2023-05-10T07:27:21.717Z,610.00
2023-05-10T07:28:21.770Z,611.00
2023-05-10T07:29:21.780Z,607.00
2023-05-10T07:30:21.884Z,610.00
2023-05-10T07:31:21.841Z,610.00
2023-05-10T07:32:22.018Z,604.00
2023-05-10T07:33:22.028Z,597.00
2023-05-10T07:34:22.015Z,594.00
2023-05-10T07:35:22.073Z,603.00
2023-05-10T07:36:22.097Z,606.00
2023-05-10T07:37:22.201Z,611.00
2023-05-10T07:38:22.200Z,602.00
2023-05-10T07:39:27.227Z,603.00
2023-05-10T07:40:23.440Z,603.00
2023-05-10T07:41:22.218Z,603.00
2023-05-10T07:42:22.242Z,604.00
2023-05-10T07:43:22.199Z,604.00
2023-05-10T07:44:22.219Z,602.00
2023-05-10T07:45:22.202Z,599.00
2023-05-10T07:46:22.359Z,605.00
2023-05-10T07:47:22.190Z,603.00
2023-05-10T07:48:22.935Z,604.00
2023-05-10T07:49:22.146Z,603.00
2023-05-10T07:50:22.210Z,603.00
2023-05-10T07:51:22.201Z,606.00
2023-05-10T07:52:22.782Z,602.00
2023-05-10T07:53:22.301Z,602.00
2023-05-10T07:54:22.328Z,605.00
2023-05-10T07:55:22.369Z,604.00
2023-05-10T07:56:22.430Z,605.00
2023-05-10T07:57:22.442Z,603.00
2023-05-10T07:58:22.495Z,601.00
2023-05-10T07:59:22.491Z,605.00
2023-05-10T08:00:22.570Z,605.00
2023-05-10T08:01:22.574Z,608.00
2023-05-10T08:02:22.632Z,607.00
2023-05-10T08:03:22.745Z,604.00
2023-05-10T08:04:22.699Z,606.00
2023-05-10T08:05:22.728Z,607.00
2023-05-10T08:06:22.736Z,609.00
2023-05-10T08:07:22.789Z,606.00
2023-05-10T08:08:22.786Z,607.00
2023-05-10T08:09:22.861Z,608.00
2023-05-10T08:10:22.945Z,603.00
2023-05-10T08:11:22.914Z,605.00
2023-05-10T08:12:22.921Z,605.00
2023-05-10T08:13:22.972Z,610.00
2023-05-10T08:14:22.982Z,607.00
2023-05-10T08:15:23.059Z,602.00
2023-05-10T08:16:23.183Z,590.00
2023-05-10T08:17:24.820Z,598.00
2023-05-10T08:18:23.223Z,611.00
2023-05-10T08:19:23.151Z,611.00
2023-05-10T08:20:23.234Z,609.00
2023-05-10T08:21:23.263Z,613.00
2023-05-10T08:22:23.286Z,606.00
2023-05-10T08:23:23.326Z,602.00
2023-05-10T08:24:23.345Z,603.00
2023-05-10T08:25:23.389Z,602.00
2023-05-10T08:26:23.417Z,601.00
2023-05-10T08:27:23.474Z,599.00
2023-05-10T08:28:23.538Z,601.00
2023-05-10T08:29:23.534Z,604.00
2023-05-10T08:30:23.967Z,602.00
2023-05-10T08:31:23.727Z,604.00
2023-05-10T08:32:23.670Z,606.00
2023-05-10T08:33:23.724Z,602.00
2023-05-10T08:34:23.931Z,600.00
2023-05-10T08:35:23.792Z,601.00
2023-05-10T08:36:23.836Z,603.00
2023-05-10T08:37:23.897Z,603.00
2023-05-10T08:38:23.970Z,600.00
2023-05-10T08:39:30.316Z,605.00
2023-05-10T08:40:25.435Z,605.00
2023-05-10T08:41:23.983Z,606.00
2023-05-10T08:42:23.948Z,605.00
2023-05-10T08:43:23.919Z,607.00
2023-05-10T08:44:23.930Z,607.00
2023-05-10T08:45:23.970Z,606.00
2023-05-10T08:46:23.990Z,609.00
2023-05-10T08:47:23.963Z,606.00
2023-05-10T08:48:23.928Z,606.00
2023-05-10T08:49:23.900Z,606.00
2023-05-10T08:50:23.898Z,609.00
2023-05-10T08:51:23.881Z,609.00
2023-05-10T08:52:23.976Z,604.00
2023-05-10T08:53:23.973Z,606.00
2023-05-10T08:54:24.018Z,610.00
2023-05-10T08:55:24.056Z,611.00
2023-05-10T08:56:24.045Z,611.00
2023-05-10T08:57:24.066Z,610.00
2023-05-10T08:58:24.137Z,610.00
2023-05-10T08:59:24.160Z,608.00
2023-05-10T09:00:24.513Z,611.00
2023-05-10T09:01:24.259Z,604.00
2023-05-10T09:02:24.259Z,599.00
2023-05-10T09:03:24.255Z,594.00
2023-05-10T09:04:24.351Z,573.00
2023-05-10T09:05:24.481Z,518.00
2023-05-10T09:06:24.362Z,528.00
2023-05-10T09:07:24.407Z,536.00
2023-05-10T09:08:24.420Z,553.00
2023-05-10T09:09:24.490Z,577.00
2023-05-10T09:10:24.970Z,582.00
2023-05-10T09:11:24.603Z,589.00
2023-05-10T09:12:24.578Z,595.00
2023-05-10T09:13:24.634Z,589.00
2023-05-10T09:14:24.651Z,587.00
2023-05-10T09:15:25.000Z,580.00
2023-05-10T09:16:24.739Z,584.00
2023-05-10T09:17:24.958Z,584.00
2023-05-10T09:18:26.013Z,584.00
2023-05-10T09:19:24.759Z,593.00
2023-05-10T09:20:24.773Z,589.00
2023-05-10T09:21:24.779Z,585.00
2023-05-10T09:22:24.748Z,587.00
2023-05-10T09:23:24.752Z,588.00
2023-05-10T09:24:24.730Z,582.00
2023-05-10T09:25:24.957Z,587.00
2023-05-10T09:26:24.729Z,592.00
2023-05-10T09:27:24.688Z,593.00
2023-05-10T09:28:24.722Z,594.00
2023-05-10T09:29:24.702Z,590.00
2023-05-10T09:30:24.709Z,596.00
2023-05-10T09:31:24.798Z,596.00
2023-05-10T09:32:24.719Z,595.00
2023-05-10T09:33:24.661Z,598.00
2023-05-10T09:34:24.658Z,594.00
2023-05-10T09:35:26.566Z,602.00
2023-05-10T09:36:24.649Z,602.00
2023-05-10T09:37:24.629Z,603.00
2023-05-10T09:38:24.657Z,603.00
2023-05-10T09:39:24.619Z,609.00
2023-05-10T09:40:25.023Z,616.00
2023-05-10T09:41:25.663Z,614.00
2023-05-10T09:42:24.614Z,602.00
2023-05-10T09:43:24.609Z,613.00
2023-05-10T09:44:24.630Z,615.00
2023-05-10T09:45:24.991Z,616.00
2023-05-10T09:46:24.601Z,616.00
2023-05-10T09:47:24.567Z,623.00
2023-05-10T09:48:24.557Z,620.00
2023-05-10T09:49:24.555Z,617.00
2023-05-10T09:50:25.053Z,614.00
2023-05-10T09:51:24.552Z,617.00
2023-05-10T09:52:24.538Z,618.00
2023-05-10T09:53:24.527Z,624.00
2023-05-10T09:54:24.532Z,614.00
2023-05-10T09:55:25.018Z,623.00
2023-05-10T09:56:24.519Z,621.00
2023-05-10T09:57:24.522Z,616.00
2023-05-10T09:58:24.487Z,614.00
2023-05-10T09:59:24.515Z,623.00
2023-05-10T10:00:24.499Z,625.00
2023-05-10T10:01:24.548Z,624.00
2023-05-10T10:02:24.544Z,624.00
2023-05-10T10:03:24.460Z,621.00
2023-05-10T10:04:24.521Z,621.00
2023-05-10T10:05:24.452Z,618.00
2023-05-10T10:06:29.953Z,619.00
2023-05-10T10:07:25.435Z,619.00
2023-05-10T10:08:24.432Z,620.00
2023-05-10T10:09:24.443Z,623.00
2023-05-10T10:10:24.475Z,626.00
2023-05-10T10:11:24.530Z,627.00
2023-05-10T10:12:24.398Z,624.00
2023-05-10T10:13:24.411Z,628.00
2023-05-10T10:14:24.391Z,628.00
2023-05-10T10:15:24.418Z,620.00
2023-05-10T10:16:24.533Z,625.00
2023-05-10T10:17:24.409Z,626.00
2023-05-10T10:18:24.392Z,627.00
2023-05-10T10:19:24.338Z,626.00
2023-05-10T10:20:24.359Z,613.00
2023-05-10T10:21:24.532Z,630.00
2023-05-10T10:22:24.365Z,613.00
2023-05-10T10:23:24.358Z,631.00
2023-05-10T10:24:24.325Z,623.00
2023-05-10T10:25:24.385Z,629.00
2023-05-10T10:26:24.495Z,628.00
2023-05-10T10:27:24.386Z,629.00
2023-05-10T10:28:25.395Z,634.00
2023-05-10T10:29:24.452Z,628.00
2023-05-10T10:30:24.627Z,633.00
2023-05-10T10:31:24.531Z,625.00
2023-05-10T10:32:24.550Z,636.00
2023-05-10T10:33:28.956Z,630.00
2023-05-10T10:34:24.487Z,630.00
2023-05-10T10:35:24.479Z,631.00
2023-05-10T10:36:24.527Z,632.00
2023-05-10T10:37:24.496Z,627.00
2023-05-10T10:38:24.496Z,636.00
2023-05-10T10:39:24.435Z,635.00
2023-05-10T10:40:24.476Z,622.00
2023-05-10T10:41:24.481Z,630.00
2023-05-10T10:42:24.440Z,636.00
2023-05-10T10:43:24.475Z,634.00
2023-05-10T10:44:24.490Z,626.00
2023-05-10T10:45:24.446Z,629.00
2023-05-10T10:46:24.410Z,640.00
2023-05-10T10:47:24.497Z,638.00
2023-05-10T10:48:24.423Z,638.00
2023-05-10T10:49:24.380Z,641.00
2023-05-10T10:50:24.445Z,628.00
2023-05-10T10:51:24.396Z,630.00
2023-05-10T10:52:24.362Z,646.00
2023-05-10T10:53:24.400Z,639.00
2023-05-10T10:54:24.367Z,641.00
2023-05-10T10:55:24.375Z,644.00
2023-05-10T10:56:24.367Z,647.00
2023-05-10T10:57:24.363Z,647.00
2023-05-10T10:58:24.339Z,640.00
2023-05-10T10:59:24.335Z,645.00
2023-05-10T11:00:24.353Z,644.00
2023-05-10T11:01:24.634Z,642.00
2023-05-10T11:02:24.492Z,647.00
2023-05-10T11:03:24.585Z,652.00
2023-05-10T11:04:24.620Z,648.00
2023-05-10T11:05:24.695Z,637.00
2023-05-10T11:06:24.672Z,636.00
2023-05-10T11:07:24.677Z,650.00
2023-05-10T11:08:24.672Z,648.00
2023-05-10T11:09:24.736Z,635.00
2023-05-10T11:10:24.836Z,645.00
2023-05-10T11:11:25.026Z,649.00
2023-05-10T11:12:24.864Z,639.00
2023-05-10T11:13:24.910Z,644.00
2023-05-10T11:14:24.895Z,651.00
2023-05-10T11:15:24.911Z,646.00
2023-05-10T11:16:25.236Z,651.00
2023-05-10T11:17:25.095Z,642.00
2023-05-10T11:18:24.993Z,636.00
2023-05-10T11:19:24.997Z,648.00
2023-05-10T11:20:25.064Z,635.00
2023-05-10T11:21:25.529Z,641.00
2023-05-10T11:22:25.078Z,642.00
2023-05-10T11:23:25.126Z,644.00
2023-05-10T11:24:25.137Z,634.00
2023-05-10T11:25:25.166Z,637.00
2023-05-10T11:26:25.521Z,638.00
2023-05-10T11:27:25.211Z,631.00
2023-05-10T11:28:25.273Z,626.00
2023-05-10T11:29:25.288Z,621.00
2023-05-10T11:30:25.284Z,614.00
2023-05-10T11:31:25.536Z,614.00
2023-05-10T11:32:25.418Z,601.00
2023-05-10T11:33:25.423Z,598.00
2023-05-10T11:34:25.447Z,604.00
2023-05-10T11:35:25.483Z,602.00
2023-05-10T11:36:25.537Z,609.00
2023-05-10T11:37:25.534Z,609.00
2023-05-10T11:38:25.611Z,606.00
2023-05-10T11:39:25.671Z,604.00
2023-05-10T11:40:25.665Z,602.00
2023-05-10T11:41:25.702Z,599.00
2023-05-10T11:42:25.743Z,599.00
2023-05-10T11:43:25.733Z,599.00
2023-05-10T11:44:25.788Z,595.00
2023-05-10T11:45:25.856Z,596.00
2023-05-10T11:46:26.167Z,593.00
2023-05-10T11:47:26.014Z,591.00
2023-05-10T11:48:25.929Z,594.00
2023-05-10T11:49:25.945Z,595.00
2023-05-10T11:50:25.994Z,593.00
2023-05-10T11:51:26.066Z,591.00
2023-05-10T11:52:26.021Z,591.00
2023-05-10T11:53:26.084Z,591.00
2023-05-10T11:54:26.136Z,592.00
2023-05-10T11:55:26.140Z,593.00
2023-05-10T11:56:26.190Z,591.00
2023-05-10T11:57:26.215Z,592.00
2023-05-10T11:58:26.227Z,593.00
2023-05-10T11:59:26.321Z,591.00
2023-05-10T12:00:26.337Z,591.00
2023-05-10T12:01:26.344Z,588.00
2023-05-10T12:02:26.557Z,589.00
2023-05-10T12:03:26.565Z,587.00
2023-05-10T12:04:26.569Z,588.00
2023-05-10T12:05:26.524Z,581.00
2023-05-10T12:06:26.561Z,589.00
2023-05-10T12:07:26.605Z,589.00
2023-05-10T12:08:26.662Z,584.00
2023-05-10T12:10:26.671Z,589.00
2023-05-10T12:11:27.051Z,583.00
2023-05-10T12:12:26.671Z,587.00
2023-05-10T12:13:26.685Z,587.00
2023-05-10T12:14:26.641Z,588.00
2023-05-10T12:15:26.673Z,584.00
2023-05-10T12:16:27.170Z,581.00
2023-05-10T12:17:26.668Z,583.00
2023-05-10T12:18:26.711Z,585.00
2023-05-10T12:19:26.617Z,583.00
2023-05-10T12:20:26.619Z,583.00
2023-05-10T12:21:26.636Z,583.00
2023-05-10T12:22:26.614Z,583.00
2023-05-10T12:23:26.641Z,580.00
2023-05-10T12:24:26.604Z,583.00
2023-05-10T12:25:26.611Z,581.00
2023-05-10T12:26:27.044Z,584.00
2023-05-10T12:27:26.565Z,581.00
2023-05-10T12:28:26.588Z,583.00
2023-05-10T12:29:26.550Z,578.00
2023-05-10T12:30:26.562Z,580.00